This is the latest recevied weather packets stored in our database for station/object KD8OZS. If no packets are shown the sender has not sent any weather packets the latest 10 day(s).
| Time | Temp. | Humidity | Pressure | Rain* | Wind** | Luminosity | Snow |
|---|---|---|---|---|---|---|---|
| 1777040719 | 23.89° C | 58% | 1002.6 hPa | 0 mm | - | 429 W/m² | - |
| 1777040418 | 23.89° C | 55% | 1002.7 hPa | 0 mm | - | 480 W/m² | - |
| 1777040114 | 23.33° C | 57% | 1002.8 hPa | 0 mm | - | 414 W/m² | - |
| 1777039810 | 23.33° C | 57% | 1002.6 hPa | 0 mm | - | 680 W/m² | - |
| 1777039509 | 23.33° C | 60% | 1002.8 hPa | 0 mm | - | 652 W/m² | - |
| 1777039205 | 22.78° C | 61% | 1002.9 hPa | 0 mm | - | 628 W/m² | - |
| 1777038904 | 22.22° C | 60% | 1002.8 hPa | 0 mm | - | 608 W/m² | - |
| 1777038601 | 21.11° C | 68% | 1002.9 hPa | 0 mm | - | 608 W/m² | - |
| 1777038295 | 20° C | 76% | 1003 hPa | 0 mm | - | 568 W/m² | - |
| 1777037991 | 18.89° C | 79% | 1003 hPa | 0 mm | - | 513 W/m² | - |
| 1777037687 | 18.33° C | 81% | 1003.2 hPa | 0 mm | - | 527 W/m² | - |
| 1777037383 | 17.78° C | 82% | 1003.3 hPa | 0 mm | - | 517 W/m² | - |
| 1777037080 | 16.67° C | 86% | 1003.3 hPa | 0 mm | - | 471 W/m² | - |
| 1777036778 | 16.11° C | 90% | 1003.4 hPa | 0 mm | - | 396 W/m² | - |
| 1777036473 | 15° C | 94% | 1003.5 hPa | 0 mm | - | 377 W/m² | - |
| 1777036173 | 14.44° C | 96% | 1003.4 hPa | 0 mm | - | 343 W/m² | - |
| 1777035870 | 13.89° C | 98% | 1003.4 hPa | 0 mm | - | 340 W/m² | - |
| 1777035566 | 13.33° C | 98% | 1003.6 hPa | 0 mm | - | 322 W/m² | - |
| 1777035260 | 13.33° C | 98% | 1003.4 hPa | 0 mm | - | 279 W/m² | - |
| 1777034956 | 13.33° C | 99% | 1003.5 hPa | 0 mm | - | 241 W/m² | - |
| 1777034654 | 12.78° C | 99% | 1003.4 hPa | 0 mm | - | 222 W/m² | - |
| 1777034351 | 12.78° C | 99% | 1003.6 hPa | 0 mm | - | 215 W/m² | - |
| 1777034047 | 12.78° C | 99% | 1003.5 hPa | 0 mm | - | 130 W/m² | - |
| 1777033742 | 12.78° C | 99% | 1003.5 hPa | 0 mm | - | 85 W/m² | - |
| 1777033438 | 12.22° C | 99% | 1003.5 hPa | 0 mm | - | 98 W/m² | - |
* Rain latest hour (hover to see other rain measurements)
** Current wind speed in m/s (hover to see current wind gust speed)